createdAt,value
2022-08-15T00:00:48.507Z,98258.31
2022-08-15T00:04:01.567Z,98253.09
2022-08-15T00:06:49.296Z,98248.72
2022-08-15T00:09:55.580Z,98255.50
2022-08-15T00:12:43.624Z,98245.31
2022-08-15T00:15:34.286Z,98247.69
2022-08-15T00:18:23.346Z,98240.09
2022-08-15T00:21:11.833Z,98241.72
2022-08-15T00:23:59.122Z,98245.09
2022-08-15T00:26:54.886Z,98248.72
2022-08-15T00:29:43.401Z,98251.31
2022-08-15T00:33:02.816Z,98252.91
2022-08-15T00:35:42.374Z,98252.91
2022-08-15T00:38:43.657Z,98254.72
2022-08-15T00:41:43.860Z,98257.94
2022-08-15T00:44:52.910Z,98254.34
2022-08-15T00:48:05.158Z,98259.38
2022-08-15T00:50:52.485Z,98259.38
2022-08-15T00:53:41.899Z,98260.75
2022-08-15T00:56:35.001Z,98264.97
2022-08-15T00:59:26.605Z,98269.97
2022-08-15T01:02:35.893Z,98269.97
2022-08-15T01:05:33.555Z,98278.38
2022-08-15T01:08:27.557Z,98273.19
2022-08-15T01:11:33.902Z,98279.16
2022-08-15T01:14:56.193Z,98280.00
2022-08-15T01:17:32.601Z,98281.78
2022-08-15T01:20:26.237Z,98285.00
2022-08-15T01:23:24.962Z,98284.16
2022-08-15T01:26:38.593Z,98287.81
2022-08-15T01:29:32.576Z,98280.00
2022-08-15T01:32:22.087Z,98276.56
2022-08-15T01:35:12.069Z,98262.78
2022-08-15T01:38:01.206Z,98267.16
2022-08-15T01:41:03.762Z,98260.38
2022-08-15T01:44:30.787Z,98264.75
2022-08-15T01:47:22.037Z,98266.78
2022-08-15T01:50:29.875Z,98263.34
2022-08-15T01:53:29.916Z,98267.75
2022-08-15T01:56:35.227Z,98268.75
2022-08-15T01:59:27.187Z,98267.97
2022-08-15T02:02:42.423Z,98261.97
2022-08-15T02:05:31.294Z,98253.56
2022-08-15T02:08:34.516Z,98256.94
2022-08-15T02:11:40.728Z,98257.94
2022-08-15T02:14:38.600Z,98252.72
2022-08-15T02:17:32.362Z,98257.13
2022-08-15T02:20:24.905Z,98257.94
2022-08-15T02:23:16.992Z,98250.13
2022-08-15T02:26:11.012Z,98254.34
2022-08-15T02:29:05.007Z,98257.13
2022-08-15T02:32:05.732Z,98254.50
2022-08-15T02:34:53.608Z,98252.91
2022-08-15T02:37:44.415Z,98243.31
2022-08-15T02:40:52.156Z,98256.53
2022-08-15T02:43:45.226Z,98269.53
2022-08-15T02:46:33.447Z,98260.91
2022-08-15T02:49:25.840Z,98269.53
2022-08-15T02:52:23.998Z,98266.13
2022-08-15T02:55:15.741Z,98267.94
2022-08-15T02:58:04.839Z,98268.91
2022-08-15T03:00:53.907Z,98280.13
2022-08-15T03:03:46.940Z,98280.13
2022-08-15T03:06:36.533Z,98270.72
2022-08-15T03:09:32.361Z,98277.72
2022-08-15T03:12:30.933Z,98267.50
2022-08-15T03:15:20.829Z,98273.53
2022-08-15T03:18:08.309Z,98273.53
2022-08-15T03:20:57.268Z,98278.94
2022-08-15T03:23:50.930Z,98281.53
2022-08-15T03:26:46.355Z,98281.53
2022-08-15T03:29:50.541Z,98273.91
2022-08-15T03:32:49.109Z,98280.13
2022-08-15T03:35:44.227Z,98287.94
2022-08-15T03:38:48.800Z,98291.53
2022-08-15T03:41:42.660Z,98289.13
2022-08-15T03:44:33.030Z,98283.09
2022-08-15T03:47:23.017Z,98292.72
2022-08-15T03:50:23.382Z,98296.31
2022-08-15T03:53:17.689Z,98296.50
2022-08-15T03:56:08.000Z,98289.69
2022-08-15T03:59:00.657Z,98292.50
2022-08-15T04:01:51.617Z,98287.50
2022-08-15T04:04:45.734Z,98293.47
2022-08-15T04:07:40.202Z,98299.72
2022-08-15T04:10:38.685Z,98293.88
2022-08-15T04:13:30.156Z,98285.28
2022-08-15T04:17:01.780Z,98294.72
2022-08-15T04:19:29.131Z,98291.47
2022-08-15T04:22:54.020Z,98286.47
2022-08-15T04:25:54.542Z,98281.47
2022-08-15T04:28:54.318Z,98278.06
2022-08-15T04:31:47.701Z,98285.88
2022-08-15T04:34:48.117Z,98293.66
2022-08-15T04:37:41.788Z,98288.66
2022-08-15T04:41:18.779Z,98289.69
2022-08-15T04:43:41.163Z,98296.66
2022-08-15T04:46:34.445Z,98298.47
2022-08-15T04:49:25.554Z,98297.66
2022-08-15T04:52:17.037Z,98296.88
2022-08-15T04:55:09.231Z,98301.06
2022-08-15T04:58:01.195Z,98299.47
2022-08-15T05:01:12.671Z,98300.44
2022-08-15T05:04:06.380Z,98303.25
2022-08-15T05:07:17.368Z,98299.88
2022-08-15T05:10:11.514Z,98307.66
2022-08-15T05:13:11.703Z,98300.06
2022-08-15T05:16:01.202Z,98299.25
2022-08-15T05:18:55.423Z,98299.44
2022-08-15T05:21:44.111Z,98300.22
2022-08-15T05:24:36.823Z,98303.84
2022-08-15T05:27:24.341Z,98303.84
2022-08-15T05:30:28.103Z,98304.66
2022-08-15T05:33:21.450Z,98301.44
2022-08-15T05:36:30.430Z,98305.03
2022-08-15T05:39:23.845Z,98304.22
2022-08-15T05:42:31.161Z,98307.84
2022-08-15T05:45:41.838Z,98304.41
2022-08-15T05:48:38.017Z,98299.41
2022-08-15T05:51:51.549Z,98302.00
2022-08-15T05:55:03.803Z,98302.22
2022-08-15T05:58:37.576Z,98310.81
2022-08-15T06:01:29.914Z,98303.19
2022-08-15T06:04:32.880Z,98303.00
2022-08-15T06:07:55.704Z,98304.03
2022-08-15T06:10:38.582Z,98310.81
2022-08-15T06:13:38.102Z,98308.19
2022-08-15T06:16:40.858Z,98306.44
2022-08-15T06:19:43.749Z,98319.41
2022-08-15T06:22:54.357Z,98314.22
2022-08-15T06:25:50.849Z,98313.41
2022-08-15T06:29:07.950Z,98324.63
2022-08-15T06:32:05.717Z,98325.41
2022-08-15T06:35:26.370Z,98324.41
2022-08-15T06:38:37.745Z,98326.22
2022-08-15T06:41:49.897Z,98327.41
2022-08-15T06:44:50.394Z,98331.00
2022-08-15T06:47:41.412Z,98323.22
2022-08-15T06:50:36.554Z,98327.41
2022-08-15T06:53:31.835Z,98335.22
2022-08-15T06:56:29.419Z,98335.38
2022-08-15T06:59:37.572Z,98334.59
2022-08-15T07:02:50.142Z,98339.19
2022-08-15T07:05:53.323Z,98343.56
2022-08-15T07:08:53.868Z,98343.56
2022-08-15T07:11:54.548Z,98352.97
2022-08-15T07:14:55.966Z,98352.19
2022-08-15T07:17:55.071Z,98356.38
2022-08-15T07:20:44.575Z,98357.41
2022-08-15T07:23:36.208Z,98351.16
2022-08-15T07:26:25.005Z,98358.19
2022-08-15T07:29:16.451Z,98353.78
2022-08-15T07:32:18.680Z,98358.00
2022-08-15T07:35:28.558Z,98357.00
2022-08-15T07:38:32.493Z,98365.38
2022-08-15T07:41:25.237Z,98367.19
2022-08-15T07:44:22.365Z,98379.00
2022-08-15T07:47:22.121Z,98375.41
2022-08-15T07:50:36.029Z,98393.00
2022-08-15T07:53:25.023Z,98383.59
2022-08-15T07:56:37.804Z,98397.59
2022-08-15T07:59:53.564Z,98391.59
2022-08-15T08:02:51.863Z,98399.56
2022-08-15T08:05:56.139Z,98398.59
2022-08-15T08:08:51.877Z,98396.97
2022-08-15T08:11:48.079Z,98403.78
2022-08-15T08:14:53.502Z,98402.16
2022-08-15T08:17:48.688Z,98405.56
2022-08-15T08:20:54.587Z,98405.56
2022-08-15T08:23:49.429Z,98415.16
2022-08-15T08:26:48.541Z,98415.16
2022-08-15T08:29:50.867Z,98412.56
2022-08-15T08:32:53.574Z,98423.75
2022-08-15T08:35:53.869Z,98422.97
2022-08-15T08:39:03.388Z,98432.97
2022-08-15T08:41:59.798Z,98431.38
2022-08-15T08:45:02.959Z,98422.56
2022-08-15T08:48:20.832Z,98414.78
2022-08-15T08:51:26.187Z,98419.81
2022-08-15T08:54:45.443Z,98427.59
2022-08-15T08:57:40.710Z,98425.81
2022-08-15T09:00:43.808Z,98419.81
2022-08-15T09:03:43.020Z,98415.41
2022-08-15T09:06:38.613Z,98413.59
2022-08-15T09:09:34.159Z,98416.81
2022-08-15T09:12:45.552Z,98419.22
2022-08-15T09:15:46.943Z,98429.63
2022-08-15T09:18:49.335Z,98427.63
2022-08-15T09:21:39.175Z,98422.25
2022-08-15T09:25:06.900Z,98419.44
2022-08-15T09:27:56.300Z,98427.50
2022-08-15T09:30:49.962Z,98427.88
2022-08-15T09:34:30.885Z,98421.50
2022-08-15T09:37:41.381Z,98415.91
2022-08-15T09:41:15.511Z,98406.72
2022-08-15T09:44:41.037Z,98407.34
2022-08-15T09:48:09.893Z,98401.75
2022-08-15T09:51:14.272Z,98404.56
2022-08-15T09:54:24.892Z,98399.97
2022-08-15T09:57:50.945Z,98401.16
2022-08-15T10:00:54.158Z,98404.03
2022-08-15T10:04:01.863Z,98408.88
2022-08-15T10:07:42.445Z,98391.25
2022-08-15T10:10:54.720Z,98390.06
2022-08-15T10:13:50.504Z,98391.25
2022-08-15T10:16:49.552Z,98390.06
2022-08-15T10:19:51.328Z,98388.69
2022-08-15T10:22:52.509Z,98393.28
2022-08-15T10:25:43.314Z,98391.28
2022-08-15T10:28:38.721Z,98384.06
2022-08-15T10:31:55.303Z,98386.47
2022-08-15T10:35:00.902Z,98378.50
2022-08-15T10:37:59.328Z,98384.91
2022-08-15T10:40:58.393Z,98386.91
2022-08-15T10:43:59.765Z,98376.50
2022-08-15T10:47:01.818Z,98374.13
2022-08-15T10:50:10.247Z,98374.13
2022-08-15T10:53:10.088Z,98365.91
2022-08-15T10:57:05.429Z,98362.94
2022-08-15T10:59:23.545Z,98372.13
2022-08-15T11:02:37.374Z,98369.94
2022-08-15T11:05:28.583Z,98368.34
2022-08-15T11:08:18.989Z,98376.16
2022-08-15T11:11:11.301Z,98369.13
2022-08-15T11:14:20.739Z,98371.34
2022-08-15T11:17:23.733Z,98370.91
2022-08-15T11:20:18.012Z,98375.16
2022-08-15T11:23:08.462Z,98365.53
2022-08-15T11:25:58.906Z,98375.56
2022-08-15T11:28:56.156Z,98379.75
2022-08-15T11:31:55.971Z,98371.16
2022-08-15T11:34:50.660Z,98376.16
2022-08-15T11:37:44.181Z,98378.97
2022-08-15T11:40:34.591Z,98376.34
2022-08-15T11:43:21.961Z,98383.38
2022-08-15T11:46:30.225Z,98386.97
2022-08-15T11:49:32.444Z,98378.53
2022-08-15T11:52:42.364Z,98383.75
2022-08-15T11:55:48.408Z,98379.53
2022-08-15T11:59:02.663Z,98383.75
2022-08-15T12:01:47.146Z,98382.16
2022-08-15T12:05:41.393Z,98374.75
2022-08-15T12:07:49.386Z,98378.97
2022-08-15T12:10:55.173Z,98381.34
2022-08-15T12:13:55.845Z,98370.94
2022-08-15T12:16:56.346Z,98368.34
2022-08-15T12:20:26.480Z,98374.53
2022-08-15T12:23:27.297Z,98369.34
2022-08-15T12:26:38.250Z,98376.16
2022-08-15T12:29:25.615Z,98373.53
2022-08-15T12:32:36.130Z,98373.34
2022-08-15T12:35:24.674Z,98373.97
2022-08-15T12:38:31.530Z,98374.94
2022-08-15T12:42:48.394Z,98379.16
2022-08-15T12:44:29.976Z,98381.78
2022-08-15T12:47:17.740Z,98378.34
2022-08-15T12:50:09.336Z,98377.97
2022-08-15T12:52:57.645Z,98382.16
2022-08-15T12:55:49.084Z,98384.56
2022-08-15T12:58:44.843Z,98382.75
2022-08-15T13:01:37.220Z,98381.78
2022-08-15T13:04:57.056Z,98373.34
2022-08-15T13:08:06.264Z,98366.16
2022-08-15T13:11:01.247Z,98376.75
2022-08-15T13:13:55.714Z,98370.75
2022-08-15T13:17:09.414Z,98363.72
2022-08-15T13:20:10.741Z,98363.91
2022-08-15T13:23:15.373Z,98370.75
2022-08-15T13:26:27.778Z,98364.53
2022-08-15T13:29:19.415Z,98364.94
2022-08-15T13:32:12.801Z,98357.91
2022-08-15T13:35:00.987Z,98361.31
2022-08-15T13:38:01.001Z,98346.72
2022-08-15T13:40:55.179Z,98356.94
2022-08-15T13:43:56.785Z,98345.69
2022-08-15T13:46:50.638Z,98329.47
2022-08-15T13:49:42.325Z,98322.66
2022-08-15T13:52:58.037Z,98321.66
2022-08-15T13:55:37.633Z,98316.47
2022-08-15T13:58:30.867Z,98316.47
2022-08-15T14:01:22.855Z,98315.47
2022-08-15T14:04:15.756Z,98305.03
2022-08-15T14:07:12.479Z,98300.41
2022-08-15T14:10:58.441Z,98298.59
2022-08-15T14:13:13.865Z,98303.03
2022-08-15T14:16:07.843Z,98306.41
2022-08-15T14:19:16.481Z,98303.03
2022-08-15T14:22:15.989Z,98295.22
2022-08-15T14:25:29.017Z,98300.22
2022-08-15T14:28:19.504Z,98298.44
2022-08-15T14:31:19.496Z,98296.81
2022-08-15T14:34:54.358Z,98286.41
2022-08-15T14:37:24.805Z,98296.81
2022-08-15T14:40:13.942Z,98289.59
2022-08-15T14:43:08.577Z,98294.78
2022-08-15T14:46:31.073Z,98294.78
2022-08-15T14:49:08.830Z,98298.22
2022-08-15T14:52:24.573Z,98296.41
2022-08-15T14:55:17.746Z,98304.22
2022-08-15T14:58:07.058Z,98317.25
2022-08-15T15:01:10.012Z,98317.25
2022-08-15T15:04:06.871Z,98308.84
2022-08-15T15:06:57.436Z,98320.06
2022-08-15T15:09:45.358Z,98306.41
2022-08-15T15:12:42.808Z,98314.44
2022-08-15T15:15:40.049Z,98330.06
2022-08-15T15:18:38.336Z,98329.47
2022-08-15T15:21:34.425Z,98322.66
2022-08-15T15:24:38.820Z,98329.69
2022-08-15T15:27:28.185Z,98323.06
2022-08-15T15:30:16.661Z,98318.66
2022-08-15T15:33:05.126Z,98335.09
2022-08-15T15:35:57.020Z,98343.91
2022-08-15T15:38:48.490Z,98337.88
2022-08-15T15:41:49.193Z,98342.09
2022-08-15T15:44:38.965Z,98339.50
2022-08-15T15:47:27.652Z,98330.06
2022-08-15T15:50:26.381Z,98334.06
2022-08-15T15:53:23.702Z,98326.25
2022-08-15T15:56:37.829Z,98327.88
2022-08-15T15:59:20.691Z,98319.28
2022-08-15T16:02:44.866Z,98314.84
2022-08-15T16:06:04.284Z,98308.03
2022-08-15T16:08:40.767Z,98315.84
2022-08-15T16:11:42.183Z,98314.06
2022-08-15T16:14:37.529Z,98308.66
2022-08-15T16:17:35.731Z,98309.63
2022-08-15T16:20:41.588Z,98305.44
2022-08-15T16:23:47.756Z,98303.44
2022-08-15T16:26:53.312Z,98288.81
2022-08-15T16:29:57.153Z,98289.81
2022-08-15T16:32:55.237Z,98290.84
2022-08-15T16:35:53.078Z,98291.63
2022-08-15T16:39:08.607Z,98291.63
2022-08-15T16:42:05.027Z,98289.22
2022-08-15T16:45:02.199Z,98293.44
2022-08-15T16:48:10.704Z,98301.25
2022-08-15T16:51:09.170Z,98308.44
2022-08-15T16:54:32.973Z,98328.50
2022-08-15T16:57:26.900Z,98334.69
2022-08-15T17:00:43.227Z,98336.50
2022-08-15T17:04:11.758Z,98342.09
2022-08-15T17:07:05.420Z,98346.69
2022-08-15T17:10:15.421Z,98340.84
2022-08-15T17:13:19.855Z,98349.66
2022-08-15T17:16:19.456Z,98352.28
2022-08-15T17:19:18.905Z,98356.91
2022-08-15T17:22:17.026Z,98352.69
2022-08-15T17:25:15.587Z,98364.91
2022-08-15T17:28:37.614Z,98358.28
2022-08-15T17:31:24.823Z,98363.69
2022-08-15T17:34:40.584Z,98366.50
2022-08-15T17:37:44.615Z,98357.88
2022-08-15T17:40:39.083Z,98355.47
2022-08-15T17:43:34.906Z,98354.69
2022-08-15T17:46:31.850Z,98349.69
2022-08-15T17:49:33.515Z,98360.28
2022-08-15T17:52:29.237Z,98362.09
2022-08-15T17:55:27.637Z,98362.09
2022-08-15T17:58:40.290Z,98366.09
2022-08-15T18:01:31.862Z,98368.69
2022-08-15T18:04:19.720Z,98378.50
2022-08-15T18:07:07.578Z,98381.28
2022-08-15T18:10:31.243Z,98376.91
2022-08-15T18:13:12.632Z,98387.72
2022-08-15T18:16:25.827Z,98381.09
2022-08-15T18:19:16.467Z,98398.69
2022-08-15T18:22:09.095Z,98402.28
2022-08-15T18:25:01.313Z,98394.69
2022-08-15T18:27:56.497Z,98410.50
2022-08-15T18:30:43.905Z,98420.13
2022-08-15T18:34:02.825Z,98415.28
2022-08-15T18:36:53.456Z,98416.31
2022-08-15T18:40:16.217Z,98429.69
2022-08-15T18:43:09.352Z,98432.69
2022-08-15T18:46:11.522Z,98436.28
2022-08-15T18:49:04.032Z,98443.50
2022-08-15T18:51:58.921Z,98448.72
2022-08-15T18:54:59.897Z,98451.69
2022-08-15T18:58:02.882Z,98455.28
2022-08-15T19:01:02.900Z,98462.47
2022-08-15T19:03:55.115Z,98474.91
2022-08-15T19:06:52.841Z,98481.09
2022-08-15T19:10:02.359Z,98489.28
2022-08-15T19:13:09.152Z,98494.66
2022-08-15T19:16:05.696Z,98503.44
2022-08-15T19:19:05.971Z,98501.25
2022-08-15T19:21:55.794Z,98508.22
2022-08-15T19:25:06.556Z,98516.41
2022-08-15T19:28:39.733Z,98531.22
2022-08-15T19:31:39.612Z,98530.59
2022-08-15T19:34:52.839Z,98530.78
2022-08-15T19:37:59.725Z,98529.19
2022-08-15T19:41:02.194Z,98537.97
2022-08-15T19:44:03.507Z,98539.97
2022-08-15T19:47:06.342Z,98544.34
2022-08-15T19:50:20.367Z,98538.38
2022-08-15T19:53:39.787Z,98545.72
2022-08-15T19:56:41.247Z,98557.94
2022-08-15T19:59:36.242Z,98556.53
2022-08-15T20:02:30.818Z,98558.34
2022-08-15T20:06:07.062Z,98561.91
2022-08-15T20:08:51.000Z,98556.28
2022-08-15T20:11:52.732Z,98553.69
2022-08-15T20:14:52.504Z,98558.47
2022-08-15T20:17:58.173Z,98559.47
2022-08-15T20:20:57.100Z,98556.22
2022-08-15T20:23:59.222Z,98567.66
2022-08-15T20:26:58.190Z,98570.25
2022-08-15T20:29:54.865Z,98567.03
2022-08-15T20:32:48.568Z,98572.22
2022-08-15T20:35:41.097Z,98575.81
2022-08-15T20:38:52.164Z,98575.81
2022-08-15T20:41:51.156Z,98573.41
2022-08-15T20:44:45.447Z,98577.81
2022-08-15T20:47:44.144Z,98583.78
2022-08-15T20:50:47.859Z,98575.41
2022-08-15T20:53:37.516Z,98574.56
2022-08-15T20:56:33.823Z,98579.78
2022-08-15T20:59:43.909Z,98576.56
2022-08-15T21:02:46.244Z,98578.53
2022-08-15T21:05:56.378Z,98584.75
2022-08-15T21:09:19.545Z,98585.13
2022-08-15T21:12:46.316Z,98596.53
2022-08-15T21:16:05.413Z,98589.72
2022-08-15T21:19:05.901Z,98589.91
2022-08-15T21:21:53.458Z,98595.09
2022-08-15T21:24:42.904Z,98600.28
2022-08-15T21:27:41.371Z,98602.06
2022-08-15T21:31:02.285Z,98606.66
2022-08-15T21:34:35.981Z,98602.66
2022-08-15T21:37:33.967Z,98602.84
2022-08-15T21:40:56.467Z,98607.22
2022-08-15T21:44:14.565Z,98598.81
2022-08-15T21:47:34.209Z,98603.38
2022-08-15T21:50:39.681Z,98605.19
2022-08-15T21:53:33.141Z,98599.16
2022-08-15T21:56:26.785Z,98602.59
2022-08-15T22:00:19.827Z,98607.78
2022-08-15T22:03:15.357Z,98607.94
2022-08-15T22:06:07.261Z,98606.13
2022-08-15T22:08:56.772Z,98608.72
2022-08-15T22:11:50.525Z,98612.16
2022-08-15T22:14:39.626Z,98608.72
2022-08-15T22:17:32.118Z,98619.97
2022-08-15T22:20:32.180Z,98620.78
2022-08-15T22:23:22.595Z,98613.94
2022-08-15T22:26:36.688Z,98610.53
2022-08-15T22:29:30.562Z,98616.72
2022-08-15T22:32:31.029Z,98615.94
2022-08-15T22:35:20.124Z,98609.91
2022-08-15T22:38:08.486Z,98615.28
2022-08-15T22:40:55.899Z,98615.28
2022-08-15T22:43:45.715Z,98617.88
2022-08-15T22:46:37.302Z,98628.28
2022-08-15T22:49:27.083Z,98621.47
2022-08-15T22:52:19.333Z,98630.28
2022-08-15T22:55:34.254Z,98635.66
2022-08-15T22:58:22.280Z,98628.22
2022-08-15T23:01:29.829Z,98626.78
2022-08-15T23:04:40.784Z,98619.00
2022-08-15T23:07:34.506Z,98630.56
2022-08-15T23:10:36.526Z,98632.38
2022-08-15T23:13:29.895Z,98628.16
2022-08-15T23:16:46.939Z,98631.91
2022-08-15T23:19:46.793Z,98624.31
2022-08-15T23:22:45.401Z,98626.31
2022-08-15T23:25:48.421Z,98634.09
2022-08-15T23:28:56.590Z,98628.28
2022-08-15T23:31:51.435Z,98627.84
2022-08-15T23:34:43.539Z,98629.63
2022-08-15T23:37:36.270Z,98626.44
2022-08-15T23:40:33.889Z,98624.81
2022-08-15T23:43:21.943Z,98630.38
2022-08-15T23:46:36.602Z,98625.38
2022-08-15T23:49:16.810Z,98627.16
2022-08-15T23:52:06.740Z,98618.75
2022-08-15T23:55:08.205Z,98615.50
2022-08-15T23:57:56.832Z,98613.09
